Guilford College, North Carolina
Current Conditions -  °F | °C
As of 8:54 AM on Monday 24 Nov 2014 (Local Time) from KGSO Reporting Station
Few Clouds Few Clouds  
Wind Chill: 61°   Ceiling: Unl
Heat Index: 61°   Visibility: 10mi
Dew Point: 55°   Wind: 15mph
Humidity: 81%   Direction: 210°SSW
Pressure: 29.78"   Gusts: 22mph
Location:  36.1197°N, 79.8944°W
Report Text: KGSO 241354Z 21013G19KT 10SM FEW040 16/13 A2978 RMK AO2 SLP079 T01610128
Loading
Personal Weather Stations






























Interactive Weather Map New forecast layout! Learn more

10-Day Weather Forecast

Advertisements
Track Severe Weather on mobile